Time;durP1;ratioP1;P1;durP2;ratioP2;P2;SDS_P1;SDS_P2;PMS_P1;PMS_P2;Temp;Humidity;BMP_temperature;BMP_pressure;BME280_temperature;BME280_humidity;BME280_pressure;Samples;Min_cycle;Max_cycle;Signal;HPM_P1;HPM_P2
2021/09/04 00:01:26;;;;;;;0.10;0.10;;;12.70;86.20;;;;;;5053010;28;20037;-75
2021/09/04 00:03:51;;;;;;;0.10;0.10;;;12.70;86.30;;;;;;5054105;28;20052;-75
2021/09/04 00:06:17;;;;;;;0.10;0.10;;;12.60;86.80;;;;;;5054136;28;20378;-74
2021/09/04 00:08:43;;;;;;;0.10;0.10;;;12.60;87.30;;;;;;5052741;28;20021;-75
2021/09/04 00:11:08;;;;;;;0.10;0.10;;;12.50;87.40;;;;;;5054066;28;20025;-75
2021/09/04 00:13:34;;;;;;;0.05;0.05;;;12.50;87.70;;;;;;5053898;28;20029;-74
2021/09/04 00:16:00;;;;;;;0.10;0.10;;;12.50;88.20;;;;;;5053924;28;20025;-75
2021/09/04 00:18:29;;;;;;;0.10;0.10;;;12.40;88.50;;;;;;5053800;28;20029;-75
2021/09/04 00:20:55;;;;;;;0.10;0.10;;;12.40;89.20;;;;;;5053834;28;20056;-75
2021/09/04 00:23:20;;;;;;;0.10;0.10;;;12.30;89.20;;;;;;5053837;28;20025;-75
2021/09/04 00:25:46;;;;;;;0.00;0.00;;;12.30;89.70;;;;;;5053773;28;20465;-75
2021/09/04 00:28:11;;;;;;;0.10;0.10;;;12.30;90.00;;;;;;5053648;28;20111;-75
2021/09/04 00:30:37;;;;;;;0.10;0.10;;;12.30;90.10;;;;;;5053650;28;20108;-75
2021/09/04 00:33:03;;;;;;;0.03;0.03;;;12.30;90.40;;;;;;5053567;28;20021;-74
2021/09/04 00:35:28;;;;;;;0.10;0.10;;;12.30;90.30;;;;;;5053523;28;20470;-74
2021/09/04 00:37:54;;;;;;;0.00;0.00;;;12.30;90.70;;;;;;5053521;28;20036;-75
2021/09/04 00:40:20;;;;;;;0.10;0.10;;;12.30;90.70;;;;;;5053523;28;20029;-74
2021/09/04 00:42:46;;;;;;;0.10;0.10;;;12.30;90.90;;;;;;5051939;28;20119;-74
2021/09/04 00:45:11;;;;;;;0.10;0.10;;;12.30;90.90;;;;;;5053229;28;20116;-74
2021/09/04 00:48:01;;;;;;;0.00;0.00;;;12.40;90.90;;;;;;5054805;28;20040;-75
2021/09/04 00:50:29;;;;;;;0.10;0.10;;;12.40;90.80;;;;;;5053380;28;20025;-75
2021/09/04 00:52:55;;;;;;;0.10;0.10;;;12.40;90.80;;;;;;5052017;28;20033;-75
2021/09/04 00:55:22;;;;;;;0.10;0.10;;;12.50;90.90;;;;;;5053272;28;20040;-75
2021/09/04 00:57:49;;;;;;;0.03;0.03;;;12.50;90.80;;;;;;5053293;28;20017;-75
2021/09/04 01:00:15;;;;;;;0.10;0.10;;;12.60;90.70;;;;;;5053197;28;20029;-74
2021/09/04 01:02:41;;;;;;;0.10;0.10;;;12.60;90.70;;;;;;5053176;28;20025;-75
2021/09/04 01:05:07;;;;;;;0.10;0.10;;;12.60;90.40;;;;;;5053007;28;20108;-74
2021/09/04 01:07:33;;;;;;;0.10;0.10;;;12.60;90.20;;;;;;5053077;28;20052;-74
2021/09/04 01:10:00;;;;;;;0.10;0.10;;;12.60;90.00;;;;;;5052656;28;20032;-74
2021/09/04 01:12:26;;;;;;;0.10;0.10;;;12.50;90.10;;;;;;5053474;28;20037;-74
2021/09/04 01:14:51;;;;;;;0.10;0.10;;;12.50;90.20;;;;;;5053040;28;20029;-74
2021/09/04 01:17:17;;;;;;;0.10;0.10;;;12.50;90.40;;;;;;5053542;28;20025;-74
2021/09/04 01:19:43;;;;;;;0.10;0.10;;;12.40;90.50;;;;;;5053090;28;20029;-74
2021/09/04 01:22:09;;;;;;;0.10;0.10;;;12.50;90.40;;;;;;5053426;28;20029;-74
2021/09/04 01:24:34;;;;;;;0.10;0.10;;;12.50;90.30;;;;;;5052953;28;20037;-74
2021/09/04 01:27:00;;;;;;;0.10;0.10;;;12.50;90.30;;;;;;5053211;28;20434;-74
2021/09/04 01:29:26;;;;;;;0.10;0.10;;;12.50;90.30;;;;;;5052925;28;20025;-74
2021/09/04 01:31:52;;;;;;;0.10;0.10;;;12.50;90.30;;;;;;5053311;28;20032;-74
2021/09/04 01:34:18;;;;;;;0.10;0.10;;;12.50;90.40;;;;;;5052843;28;20394;-74
2021/09/04 01:36:43;;;;;;;0.05;0.05;;;12.50;90.50;;;;;;5053209;28;20037;-74
2021/09/04 01:39:10;;;;;;;0.10;0.10;;;12.50;90.50;;;;;;5052816;28;20028;-74
2021/09/04 01:41:37;;;;;;;0.00;0.00;;;12.50;90.40;;;;;;5053137;28;20429;-74
2021/09/04 01:44:04;;;;;;;0.10;0.10;;;12.50;90.40;;;;;;5051487;28;20028;-74
2021/09/04 01:46:30;;;;;;;0.10;0.10;;;12.50;90.40;;;;;;5052985;28;20049;-74
2021/09/04 01:48:57;;;;;;;0.10;0.10;;;12.60;90.40;;;;;;5054648;28;20033;-74
2021/09/04 01:51:23;;;;;;;0.10;0.10;;;12.50;90.50;;;;;;5052949;28;20355;-74
2021/09/04 01:53:49;;;;;;;0.00;0.00;;;12.60;90.30;;;;;;5052693;28;20036;-74
2021/09/04 01:56:15;;;;;;;0.10;0.10;;;12.60;90.20;;;;;;5052889;28;20041;-74
2021/09/04 01:58:41;;;;;;;0.00;0.00;;;12.60;90.10;;;;;;5052667;28;20021;-74
2021/09/04 02:01:07;;;;;;;0.00;0.00;;;12.60;90.10;;;;;;5052753;28;20037;-74
2021/09/04 02:03:34;;;;;;;0.10;0.10;;;12.70;90.10;;;;;;5052627;28;20478;-74
2021/09/04 02:06:00;;;;;;;0.00;0.00;;;12.70;90.10;;;;;;5051245;28;20079;-74
2021/09/04 02:08:26;;;;;;;0.08;0.08;;;12.60;90.10;;;;;;5052571;28;20108;-74
2021/09/04 02:10:52;;;;;;;0.00;0.00;;;12.70;90.20;;;;;;5052692;28;20431;-74
2021/09/04 02:13:18;;;;;;;0.03;0.03;;;12.70;90.30;;;;;;5051515;28;20037;-74
2021/09/04 02:15:43;;;;;;;0.10;0.10;;;12.70;90.20;;;;;;5051544;28;20078;-74
2021/09/04 02:18:09;;;;;;;0.10;0.10;;;12.70;90.20;;;;;;5052685;28;20079;-74
2021/09/04 02:20:35;;;;;;;0.08;0.08;;;12.70;90.20;;;;;;5051992;28;20032;-74
2021/09/04 02:23:01;;;;;;;0.10;0.10;;;12.70;90.20;;;;;;5056022;28;20036;-74
2021/09/04 02:25:26;;;;;;;0.00;0.00;;;12.70;90.20;;;;;;5055889;28;20427;-74
2021/09/04 02:27:52;;;;;;;0.00;0.00;;;12.70;90.30;;;;;;5055953;28;20482;-74
2021/09/04 02:30:17;;;;;;;0.00;0.00;;;12.70;90.40;;;;;;5055873;28;20025;-74
2021/09/04 02:32:43;;;;;;;0.10;0.10;;;12.70;90.50;;;;;;5054584;28;20025;-74
2021/09/04 02:35:09;;;;;;;0.00;0.00;;;12.80;90.50;;;;;;5055753;28;20021;-74
2021/09/04 02:37:35;;;;;;;0.10;0.10;;;12.80;90.40;;;;;;5055730;28;20033;-74
2021/09/04 02:40:01;;;;;;;0.10;0.10;;;12.80;90.40;;;;;;5055642;28;20428;-74
2021/09/04 02:42:27;;;;;;;0.03;0.03;;;12.80;90.30;;;;;;5056090;28;20021;-75
2021/09/04 02:44:52;;;;;;;0.10;0.10;;;12.80;90.40;;;;;;5055555;28;20033;-74
2021/09/04 02:47:18;;;;;;;0.10;0.10;;;12.80;90.50;;;;;;5057254;28;20028;-74
2021/09/04 02:49:44;;;;;;;0.10;0.10;;;12.80;90.50;;;;;;5055585;28;20029;-74
2021/09/04 02:52:09;;;;;;;0.00;0.00;;;12.80;90.60;;;;;;5055941;28;20029;-74
2021/09/04 02:54:35;;;;;;;0.10;0.10;;;12.80;90.70;;;;;;5055454;28;20029;-75
2021/09/04 02:57:01;;;;;;;0.10;0.10;;;12.90;90.80;;;;;;5055736;28;20055;-74
2021/09/04 02:59:26;;;;;;;0.10;0.10;;;12.90;90.80;;;;;;5055361;28;20065;-74
2021/09/04 03:01:52;;;;;;;0.10;0.10;;;12.90;90.80;;;;;;5055621;28;20040;-74
2021/09/04 03:04:18;;;;;;;0.10;0.10;;;13.00;90.60;;;;;;5055287;28;20025;-74
2021/09/04 03:06:43;;;;;;;0.10;0.10;;;13.10;90.50;;;;;;5055498;28;20444;-74
2021/09/04 03:09:09;;;;;;;0.10;0.10;;;13.10;90.40;;;;;;5055160;28;20021;-74
2021/09/04 03:11:35;;;;;;;0.10;0.10;;;13.10;90.40;;;;;;5053964;28;20094;-74
2021/09/04 03:14:01;;;;;;;0.00;0.00;;;13.10;90.40;;;;;;5055121;28;20074;-74
2021/09/04 03:16:30;;;;;;;0.00;0.00;;;13.10;90.30;;;;;;5053846;28;20060;-74
2021/09/04 03:18:56;;;;;;;0.10;0.10;;;13.10;90.20;;;;;;5053685;28;20021;-74
2021/09/04 03:21:21;;;;;;;0.05;0.05;;;13.10;90.30;;;;;;5053712;28;20474;-75
2021/09/04 03:23:47;;;;;;;0.10;0.10;;;13.20;90.30;;;;;;5054922;28;20032;-75
2021/09/04 03:26:13;;;;;;;0.08;0.08;;;13.20;90.60;;;;;;5054927;28;20041;-75
2021/09/04 03:28:39;;;;;;;0.10;0.10;;;13.20;90.30;;;;;;5054776;28;20021;-75
2021/09/04 03:31:04;;;;;;;0.00;0.00;;;13.20;90.40;;;;;;5054503;28;20040;-75
2021/09/04 03:33:30;;;;;;;0.00;0.00;;;13.30;90.40;;;;;;5054909;28;20037;-75
2021/09/04 03:35:55;;;;;;;0.00;0.00;;;13.30;90.40;;;;;;5054965;28;20032;-76
2021/09/04 03:38:21;;;;;;;0.10;0.10;;;13.40;90.30;;;;;;5054950;28;20508;-75
2021/09/04 03:40:47;;;;;;;0.10;0.10;;;13.40;90.20;;;;;;5054592;28;20114;-74
2021/09/04 03:43:13;;;;;;;0.00;0.00;;;13.40;90.20;;;;;;5054526;28;20036;-75
2021/09/04 03:45:39;;;;;;;0.10;0.10;;;13.50;90.10;;;;;;5054539;28;20036;-74
2021/09/04 03:48:04;;;;;;;0.10;0.10;;;13.50;90.10;;;;;;5055691;28;20033;-75
2021/09/04 03:50:30;;;;;;;0.10;0.10;;;13.50;89.90;;;;;;5054609;28;20095;-74
2021/09/04 03:52:56;;;;;;;0.05;0.05;;;13.50;89.60;;;;;;5054241;28;20476;-75
2021/09/04 03:55:22;;;;;;;0.00;0.00;;;13.50;89.50;;;;;;5053019;28;20056;-74
2021/09/04 03:57:48;;;;;;;0.10;0.10;;;13.50;89.50;;;;;;5054010;28;20027;-74
2021/09/04 04:00:14;;;;;;;0.10;0.10;;;13.60;89.50;;;;;;5054500;28;20121;-75
2021/09/04 04:02:40;;;;;;;0.10;0.10;;;13.60;89.50;;;;;;5054028;28;20025;-75
2021/09/04 04:05:06;;;;;;;0.10;0.10;;;13.70;89.30;;;;;;5053936;28;20029;-74
2021/09/04 04:07:32;;;;;;;0.10;0.10;;;13.70;89.10;;;;;;5053878;28;20033;-75
2021/09/04 04:09:57;;;;;;;0.00;0.00;;;13.80;89.20;;;;;;5054063;28;20151;-74
2021/09/04 04:12:23;;;;;;;0.10;0.10;;;13.90;89.20;;;;;;5054365;28;20390;-74
2021/09/04 04:14:49;;;;;;;0.10;0.10;;;14.00;89.10;;;;;;5053964;28;20040;-74
2021/09/04 04:17:15;;;;;;;0.10;0.10;;;14.20;88.70;;;;;;5052711;28;20033;-74
2021/09/04 04:19:40;;;;;;;0.10;0.10;;;14.30;87.90;;;;;;5053921;28;20021;-75
2021/09/04 04:22:06;;;;;;;0.10;0.10;;;14.30;87.20;;;;;;5054233;28;20104;-75
2021/09/04 04:24:32;;;;;;;0.10;0.10;;;14.40;87.10;;;;;;5053734;28;20386;-75
2021/09/04 04:26:57;;;;;;;0.08;0.08;;;14.50;86.90;;;;;;5054006;28;20041;-75
2021/09/04 04:29:23;;;;;;;0.10;0.10;;;14.50;86.50;;;;;;5052371;28;20025;-74
2021/09/04 04:31:50;;;;;;;0.05;0.05;;;14.60;86.20;;;;;;5053975;28;20033;-75
2021/09/04 04:34:15;;;;;;;0.10;0.10;;;14.70;85.80;;;;;;5053501;28;20029;-74
2021/09/04 04:36:41;;;;;;;0.10;0.10;;;14.70;85.60;;;;;;5053734;28;20075;-74
2021/09/04 04:39:07;;;;;;;0.10;0.10;;;14.90;86.20;;;;;;5053400;28;20470;-74
2021/09/04 04:41:33;;;;;;;0.10;0.10;;;15.10;85.50;;;;;;5052316;28;20037;-75
2021/09/04 04:43:59;;;;;;;0.10;0.10;;;15.40;84.90;;;;;;5052636;28;20519;-75
2021/09/04 04:46:24;;;;;;;0.10;0.10;;;15.60;84.20;;;;;;5053585;28;20120;-74
2021/09/04 04:48:50;;;;;;;0.10;0.10;;;15.90;83.10;;;;;;5054703;28;20371;-74
2021/09/04 04:51:15;;;;;;;0.10;0.10;;;16.00;82.20;;;;;;5053455;28;20477;-74
2021/09/04 04:53:41;;;;;;;0.05;0.05;;;16.30;81.30;;;;;;5053310;28;20029;-74
2021/09/04 04:56:07;;;;;;;0.05;0.05;;;16.60;80.60;;;;;;5053405;28;20033;-75
2021/09/04 04:58:32;;;;;;;0.10;0.10;;;16.70;79.20;;;;;;5053361;28;20092;-75
2021/09/04 05:00:58;;;;;;;0.00;0.00;;;16.70;78.50;;;;;;5053371;28;20033;-75
2021/09/04 05:03:24;;;;;;;0.10;0.10;;;16.50;78.40;;;;;;5053213;28;20108;-74
2021/09/04 05:05:50;;;;;;;0.00;0.00;;;16.40;78.80;;;;;;5053192;28;20060;-75
2021/09/04 05:08:16;;;;;;;0.10;0.10;;;16.30;78.90;;;;;;5051944;28;20025;-75
2021/09/04 05:10:42;;;;;;;0.10;0.10;;;16.20;79.10;;;;;;5053148;28;20352;-74
2021/09/04 05:13:07;;;;;;;0.10;0.10;;;16.20;79.40;;;;;;5051506;28;20383;-76
2021/09/04 05:15:33;;;;;;;0.10;0.10;;;16.30;79.10;;;;;;5052969;28;20036;-75
2021/09/04 05:17:59;;;;;;;0.10;0.10;;;16.30;79.00;;;;;;5052957;28;20450;-76
2021/09/04 05:20:24;;;;;;;0.10;0.10;;;16.30;78.60;;;;;;5052994;28;20021;-74
2021/09/04 05:22:50;;;;;;;0.10;0.10;;;16.30;78.60;;;;;;5052851;28;20045;-75
2021/09/04 05:25:17;;;;;;;0.10;0.10;;;16.30;78.30;;;;;;5052825;28;20029;-74
2021/09/04 05:27:43;;;;;;;0.05;0.05;;;16.20;78.50;;;;;;5051387;28;20062;-75
2021/09/04 05:30:10;;;;;;;0.10;0.10;;;16.20;78.70;;;;;;5051481;28;20028;-75
2021/09/04 05:32:36;;;;;;;0.00;0.00;;;16.50;80.00;;;;;;5052934;28;20376;-75
2021/09/04 05:35:01;;;;;;;0.00;0.00;;;17.00;79.90;;;;;;5052272;28;20070;-74
2021/09/04 05:37:27;;;;;;;0.00;0.00;;;17.50;78.90;;;;;;5053107;28;20462;-75
2021/09/04 05:39:54;;;;;;;0.03;0.03;;;17.80;77.10;;;;;;5052474;28;20366;-75
2021/09/04 05:42:20;;;;;;;0.10;0.10;;;18.00;76.20;;;;;;5053217;28;20060;-75
2021/09/04 05:44:45;;;;;;;0.00;0.00;;;18.20;75.20;;;;;;5051628;28;20043;-75
2021/09/04 05:47:20;;;;;;;0.10;0.10;;;18.30;74.80;;;;;;5053154;28;20033;-75
2021/09/04 05:49:46;;;;;;;0.10;0.10;;;18.40;73.80;;;;;;5053234;28;20029;-76
2021/09/04 05:52:12;;;;;;;0.00;0.00;;;18.40;73.60;;;;;;5053133;28;20029;-76
2021/09/04 05:54:37;;;;;;;0.03;0.03;;;18.30;74.20;;;;;;5053353;28;20032;-75
2021/09/04 05:57:03;;;;;;;0.10;0.10;;;18.50;73.90;;;;;;5056668;28;20037;-75
2021/09/04 05:59:28;;;;;;;0.00;0.00;;;18.80;74.00;;;;;;5056249;28;20052;-75
2021/09/04 06:01:55;;;;;;;0.10;0.10;;;19.50;74.10;;;;;;5056514;28;20252;-75
2021/09/04 06:04:21;;;;;;;0.00;0.00;;;20.00;72.40;;;;;;5056275;28;20374;-76
2021/09/04 06:06:47;;;;;;;0.10;0.10;;;20.40;71.50;;;;;;5055220;28;20099;-74
2021/09/04 06:09:12;;;;;;;0.00;0.00;;;20.50;70.00;;;;;;5058303;28;20040;-77
2021/09/04 06:11:38;;;;;;;0.00;0.00;;;20.40;69.50;;;;;;5057586;28;20079;-75
2021/09/04 06:14:05;;;;;;;0.10;0.10;;;20.70;70.20;;;;;;5056819;28;20386;-74
2021/09/04 06:16:31;;;;;;;0.10;0.10;;;21.40;69.60;;;;;;5057000;28;20029;-75
2021/09/04 06:18:57;;;;;;;0.00;0.00;;;21.90;68.50;;;;;;5056316;28;20071;-74
2021/09/04 06:21:22;;;;;;;0.00;0.00;;;22.50;67.70;;;;;;5056552;28;20083;-75
2021/09/04 06:23:48;;;;;;;0.00;0.00;;;22.60;65.50;;;;;;5057842;28;20021;-73
2021/09/04 06:26:14;;;;;;;0.00;0.00;;;22.40;65.20;;;;;;5055785;28;20045;-74
2021/09/04 06:28:39;;;;;;;0.00;0.00;;;22.20;65.10;;;;;;5055714;28;20501;-74
2021/09/04 06:31:05;;;;;;;0.00;0.00;;;22.10;65.10;;;;;;5055514;28;20355;-74
2021/09/04 06:33:31;;;;;;;0.00;0.00;;;22.60;65.60;;;;;;5055695;28;20029;-74
2021/09/04 06:35:56;;;;;;;0.00;0.00;;;23.40;64.60;;;;;;5054402;28;20032;-75
2021/09/04 06:38:22;;;;;;;0.00;0.00;;;24.10;63.60;;;;;;5054867;28;20068;-74
2021/09/04 06:40:48;;;;;;;0.00;0.00;;;24.70;62.10;;;;;;5054305;28;20039;-73
2021/09/04 06:43:14;;;;;;;0.00;0.00;;;25.30;61.40;;;;;;5055652;28;20040;-74
2021/09/04 06:45:39;;;;;;;0.00;0.00;;;25.60;59.80;;;;;;5055609;28;20032;-74
2021/09/04 06:48:05;;;;;;;0.00;0.00;;;25.30;58.80;;;;;;5056787;28;20037;-75
2021/09/04 06:50:31;;;;;;;0.00;0.00;;;25.00;58.90;;;;;;5055465;28;20032;-76
2021/09/04 06:52:57;;;;;;;0.00;0.00;;;25.20;60.00;;;;;;5055046;28;20444;-75
2021/09/04 06:55:23;;;;;;;0.00;0.00;;;25.50;58.90;;;;;;5055296;28;20029;-75
2021/09/04 06:57:49;;;;;;;0.00;0.00;;;25.40;57.80;;;;;;5055094;28;20044;-76
2021/09/04 07:00:15;;;;;;;0.00;0.00;;;25.00;57.60;;;;;;5055001;28;20040;-75
2021/09/04 07:02:41;;;;;;;0.00;0.00;;;24.30;57.80;;;;;;5055159;28;20029;-76
2021/09/04 07:05:07;;;;;;;0.00;0.00;;;23.50;58.60;;;;;;5053494;28;20022;-75
2021/09/04 07:07:33;;;;;;;0.00;0.00;;;22.70;59.50;;;;;;5054332;28;20458;-74
2021/09/04 07:09:58;;;;;;;0.00;0.00;;;22.00;61.00;;;;;;5055022;28;20045;-75
2021/09/04 07:12:24;;;;;;;0.00;0.00;;;21.60;62.10;;;;;;5053700;28;20120;-75
2021/09/04 07:14:50;;;;;;;0.03;0.03;;;21.30;63.00;;;;;;5054820;28;20070;-75
2021/09/04 07:17:15;;;;;;;0.00;0.00;;;21.20;64.00;;;;;;5053315;28;20108;-75
2021/09/04 07:19:41;;;;;;;0.00;0.00;;;21.50;64.30;;;;;;5054898;28;20498;-75
2021/09/04 07:22:07;;;;;;;0.00;0.00;;;21.60;63.70;;;;;;5055128;28;20033;-75
2021/09/04 07:24:32;;;;;;;0.00;0.00;;;21.50;63.40;;;;;;5054752;28;20091;-74
2021/09/04 07:26:58;;;;;;;0.00;0.00;;;21.40;63.30;;;;;;5054928;28;20067;-75
2021/09/04 07:29:23;;;;;;;0.00;0.00;;;21.20;63.30;;;;;;5054659;28;20079;-75
2021/09/04 07:31:49;;;;;;;0.00;0.00;;;21.00;63.70;;;;;;5053319;28;20082;-74
2021/09/04 07:34:15;;;;;;;0.00;0.00;;;20.90;64.20;;;;;;5054427;28;20037;-75
2021/09/04 07:36:40;;;;;;;0.00;0.00;;;20.90;64.60;;;;;;5054691;28;20033;-75
2021/09/04 07:39:06;;;;;;;0.00;0.00;;;21.00;64.30;;;;;;5054471;28;20029;-74
2021/09/04 07:41:32;;;;;;;0.00;0.00;;;21.20;64.20;;;;;;5054654;28;20462;-74
2021/09/04 07:43:58;;;;;;;0.00;0.00;;;21.50;64.10;;;;;;5053964;28;20021;-74
2021/09/04 07:46:24;;;;;;;0.00;0.00;;;21.70;63.60;;;;;;5053535;28;20048;-75
2021/09/04 07:48:50;;;;;;;0.00;0.00;;;21.90;62.80;;;;;;5054023;28;20120;-75
2021/09/04 07:51:15;;;;;;;0.00;0.00;;;21.80;62.50;;;;;;5052465;28;20159;-75
2021/09/04 07:53:41;;;;;;;0.00;0.00;;;21.70;62.30;;;;;;5052629;28;20108;-75
2021/09/04 07:56:06;;;;;;;0.00;0.00;;;21.60;62.40;;;;;;5053979;28;20040;-74
2021/09/04 07:58:32;;;;;;;0.00;0.00;;;21.40;62.60;;;;;;5053927;28;20025;-75
2021/09/04 08:00:58;;;;;;;0.10;0.10;;;21.10;62.80;;;;;;5053675;28;20401;-74
2021/09/04 08:03:24;;;;;;;0.00;0.00;;;20.90;63.10;;;;;;5053921;28;20029;-72
2021/09/04 08:05:50;;;;;;;0.00;0.00;;;20.80;63.50;;;;;;5052459;28;20508;-75
2021/09/04 08:08:15;;;;;;;0.00;0.00;;;20.80;63.90;;;;;;5053775;28;20376;-76
2021/09/04 08:10:43;;;;;;;0.00;0.00;;;20.80;63.90;;;;;;5051230;28;20036;-76
2021/09/04 08:13:10;;;;;;;0.00;0.00;;;20.80;63.70;;;;;;5051296;28;20036;-75
2021/09/04 08:15:36;;;;;;;0.00;0.00;;;20.70;63.60;;;;;;5050317;28;20025;-75
2021/09/04 08:18:02;;;;;;;0.10;0.10;;;20.50;63.60;;;;;;5049697;28;20120;-75
2021/09/04 08:20:28;;;;;;;0.05;0.05;;;20.30;63.70;;;;;;5049695;28;20100;-75
2021/09/04 08:22:53;;;;;;;0.00;0.00;;;20.20;64.00;;;;;;5049827;28;20047;-74
2021/09/04 08:25:19;;;;;;;0.00;0.00;;;20.20;63.90;;;;;;5049810;28;20104;-75
2021/09/04 08:27:45;;;;;;;0.00;0.00;;;20.30;64.00;;;;;;5050418;28;20116;-74
2021/09/04 08:30:11;;;;;;;0.00;0.00;;;20.90;64.30;;;;;;5051215;28;20497;-74
2021/09/04 08:32:37;;;;;;;0.00;0.00;;;22.00;63.50;;;;;;5052037;28;20079;-75
2021/09/04 08:35:03;;;;;;;0.00;0.00;;;23.20;60.80;;;;;;5053274;28;20526;-76
2021/09/04 08:37:29;;;;;;;0.00;0.00;;;23.40;58.60;;;;;;5053345;28;20041;-76
2021/09/04 08:39:54;;;;;;;0.00;0.00;;;23.30;57.90;;;;;;5053126;28;20021;-75
2021/09/04 08:42:20;;;;;;;0.00;0.00;;;23.00;57.50;;;;;;5053755;28;20464;-76
2021/09/04 08:44:46;;;;;;;0.00;0.00;;;22.60;57.60;;;;;;5053236;28;20049;-76
2021/09/04 08:47:13;;;;;;;0.00;0.00;;;22.30;57.70;;;;;;5053848;28;20507;-77
2021/09/04 08:49:39;;;;;;;0.00;0.00;;;21.80;58.10;;;;;;5053337;28;20032;-77
2021/09/04 08:52:06;;;;;;;0.10;0.10;;;21.50;58.30;;;;;;5051845;28;20478;-76
2021/09/04 08:54:31;;;;;;;0.00;0.00;;;21.10;58.80;;;;;;5053276;28;20021;-76
2021/09/04 08:56:57;;;;;;;0.00;0.00;;;20.90;59.60;;;;;;5053010;28;20083;-77
2021/09/04 08:59:23;;;;;;;0.00;0.00;;;20.90;60.00;;;;;;5051763;28;20029;-77
2021/09/04 09:01:49;;;;;;;0.00;0.00;;;21.00;59.90;;;;;;5051249;28;20033;-75
2021/09/04 09:04:17;;;;;;;0.00;0.00;;;21.00;59.70;;;;;;5050826;28;20191;-77
2021/09/04 09:06:44;;;;;;;0.00;0.00;;;21.20;59.50;;;;;;5049380;28;20426;-77
2021/09/04 09:09:23;;;;;;;0.00;0.00;;;21.50;59.20;;;;;;5050922;28;20021;-76
2021/09/04 09:11:51;;;;;;;0.00;0.00;;;21.70;57.70;;;;;;5049506;28;20408;-76
2021/09/04 09:14:18;;;;;;;0.00;0.00;;;21.90;58.20;;;;;;5049718;28;20079;-76
2021/09/04 09:16:50;;;;;;;0.00;0.00;;;22.00;57.70;;;;;;5051794;28;20044;-78
2021/09/04 09:19:16;;;;;;;0.00;0.00;;;21.90;57.10;;;;;;5051740;28;20021;-78
2021/09/04 09:21:42;;;;;;;0.00;0.00;;;21.60;57.30;;;;;;5053137;28;20036;-76
2021/09/04 09:24:13;;;;;;;0.00;0.00;;;21.50;57.90;;;;;;5052548;28;20029;-77
2021/09/04 09:26:47;;;;;;;0.00;0.00;;;21.70;58.00;;;;;;5052783;28;20033;-76
2021/09/04 09:29:25;;;;;;;0.10;0.10;;;22.20;57.20;;;;;;5052930;28;20017;-77
2021/09/04 09:32:06;;;;;;;0.00;0.00;;;22.60;56.20;;;;;;5057883;28;20109;-77
2021/09/04 09:34:39;;;;;;;0.00;0.00;;;22.90;55.50;;;;;;5056697;28;20115;-76
2021/09/04 09:37:06;;;;;;;0.00;0.00;;;23.70;56.30;;;;;;5055247;28;20036;-76
2021/09/04 09:39:34;;;;;;;0.00;0.00;;;24.70;54.60;;;;;;5053667;28;20082;-76
2021/09/04 09:42:02;;;;;;;0.00;0.00;;;25.10;53.10;;;;;;5056579;28;20036;-76
2021/09/04 09:44:31;;;;;;;0.00;0.00;;;25.30;52.40;;;;;;5056493;28;20021;-77
2021/09/04 09:47:02;;;;;;;0.10;0.10;;;25.40;51.80;;;;;;5056733;28;20363;-77
2021/09/04 09:49:32;;;;;;;0.00;0.00;;;25.10;51.10;;;;;;5056860;28;20367;-76
2021/09/04 09:52:03;;;;;;;0.00;0.00;;;24.40;50.40;;;;;;5056700;28;20485;-76
2021/09/04 09:54:31;;;;;;;0.00;0.00;;;24.00;51.80;;;;;;5055198;28;20075;-76
2021/09/04 09:56:59;;;;;;;0.00;0.00;;;24.20;52.50;;;;;;5054116;28;20533;-77
2021/09/04 09:59:28;;;;;;;0.00;0.00;;;24.90;51.70;;;;;;5053545;28;20528;-77
2021/09/04 10:02:00;;;;;;;0.00;0.00;;;25.50;51.30;;;;;;5054573;28;20075;-73
2021/09/04 10:04:28;;;;;;;0.00;0.00;;;26.40;49.60;;;;;;5055537;28;20029;-80
2021/09/04 10:06:55;;;;;;;0.00;0.00;;;26.90;49.50;;;;;;5053180;28;20044;-76
2021/09/04 10:09:24;;;;;;;0.00;0.00;;;28.30;49.30;;;;;;5052416;28;20021;-74
2021/09/04 10:11:51;;;;;;;0.00;0.00;;;29.80;47.90;;;;;;5055045;28;20025;-76
2021/09/04 10:14:18;;;;;;;0.00;0.00;;;31.00;46.40;;;;;;5053546;28;20486;-76
2021/09/04 10:16:45;;;;;;;0.00;0.00;;;31.70;44.90;;;;;;5054479;28;20079;-75
2021/09/04 10:19:15;;;;;;;0.00;0.00;;;32.50;44.30;;;;;;5054767;28;20103;-75
2021/09/04 10:21:40;;;;;;;0.00;0.00;;;33.00;43.10;;;;;;5053239;28;20033;-76
2021/09/04 10:24:07;;;;;;;0.00;0.00;;;32.80;42.20;;;;;;5052163;28;20450;-76
2021/09/04 10:26:38;;;;;;;0.00;0.00;;;31.60;40.90;;;;;;5050667;28;20394;-75
2021/09/04 10:29:14;;;;;;;0.00;0.00;;;30.20;41.60;;;;;;5052122;28;20021;-75
2021/09/04 10:31:45;;;;;;;0.00;0.00;;;29.40;43.20;;;;;;5052466;28;20090;-75
2021/09/04 10:34:15;;;;;;;0.00;0.00;;;29.40;43.50;;;;;;5052729;28;20025;-75
2021/09/04 10:37:05;;;;;;;0.00;0.00;;;29.40;43.00;;;;;;5053420;28;20032;-75
2021/09/04 10:40:09;;;;;;;0.00;0.00;;;29.70;42.80;;;;;;5055627;28;20017;-75
2021/09/04 10:42:36;;;;;;;;;;;29.60;41.90;;;;;;5055085;28;20040;-75
2021/09/04 10:45:16;;;;;;;0.00;0.00;;;29.30;41.90;;;;;;5055493;28;19905;-74
2021/09/04 10:47:55;;;;;;;0.00;0.00;;;29.20;42.50;;;;;;5055490;28;20544;-75
2021/09/04 10:50:23;;;;;;;0.00;0.00;;;29.40;42.30;;;;;;5057386;28;20041;-75
2021/09/04 10:53:02;;;;;;;0.00;0.00;;;29.30;42.70;;;;;;5055661;28;20031;-76
2021/09/04 10:55:33;;;;;;;0.00;0.00;;;29.80;43.00;;;;;;5055343;28;20061;-76
2021/09/04 10:58:16;;;;;;;0.00;0.00;;;31.10;42.60;;;;;;5054107;28;20029;-75
2021/09/04 11:00:46;;;;;;;0.00;0.00;;;32.40;40.50;;;;;;5055625;28;20037;-74
2021/09/04 11:03:20;;;;;;;0.03;0.03;;;33.40;40.70;;;;;;5055264;28;20375;-75
2021/09/04 11:05:56;;;;;;;0.00;0.00;;;34.00;39.30;;;;;;5055177;28;20459;-75
2021/09/04 11:08:33;;;;;;;0.10;0.10;;;34.70;38.90;;;;;;5054924;28;20373;-75
2021/09/04 11:11:27;;;;;;;0.10;0.10;;;35.40;38.20;;;;;;5053938;28;20032;-76
2021/09/04 11:13:59;;;;;;;0.00;0.00;;;35.80;37.30;;;;;;5054988;28;20025;-75
2021/09/04 11:16:32;;;;;;;0.05;0.05;;;35.90;37.20;;;;;;5055333;28;20029;-75
2021/09/04 11:19:23;;;;;;;0.00;0.00;;;36.30;37.20;;;;;;5053706;28;20098;-75
2021/09/04 11:22:00;;;;;;;0.00;0.00;;;36.10;34.90;;;;;;5055301;28;20025;-75
2021/09/04 11:24:33;;;;;;;0.00;0.00;;;35.90;36.80;;;;;;5054845;28;20021;-75
2021/09/04 11:27:00;;;;;;;0.10;0.10;;;36.30;36.70;;;;;;5055053;28;20040;-75
2021/09/04 11:29:26;;;;;;;0.10;0.10;;;36.90;36.80;;;;;;5054693;28;20389;-75
2021/09/04 11:32:02;;;;;;;0.10;0.10;;;37.40;36.30;;;;;;5054994;28;20033;-75
2021/09/04 11:34:48;;;;;;;0.10;0.10;;;37.50;35.50;;;;;;5054657;28;20029;-75
2021/09/04 11:37:26;;;;;;;0.00;0.00;;;37.40;34.90;;;;;;5054819;28;20051;-76
2021/09/04 11:39:55;;;;;;;0.05;0.05;;;37.60;33.70;;;;;;5054621;28;20044;-75
2021/09/04 11:42:26;;;;;;;0.10;0.10;;;37.70;34.90;;;;;;5054927;28;20093;-75
2021/09/04 11:44:58;;;;;;;0.10;0.10;;;38.10;34.70;;;;;;5053082;28;20025;-75
2021/09/04 11:47:24;;;;;;;0.08;0.08;;;38.50;34.00;;;;;;5053374;28;20422;-76
2021/09/04 11:49:55;;;;;;;0.00;0.00;;;38.50;33.50;;;;;;5054457;28;20032;-75
2021/09/04 11:52:31;;;;;;;0.10;0.10;;;38.40;33.50;;;;;;5054559;28;20056;-75
2021/09/04 11:55:14;;;;;;;0.00;0.00;;;37.20;33.10;;;;;;5054338;28;20017;-76
2021/09/04 11:57:43;;;;;;;0.00;0.00;;;35.30;33.20;;;;;;5054152;28;20033;-75
2021/09/04 12:00:17;;;;;;;0.00;0.00;;;33.40;34.30;;;;;;5054051;28;20367;-75
2021/09/04 12:02:57;;;;;;;4.00;0.10;;;31.60;35.00;;;;;;5052831;28;20032;-75
2021/09/04 12:05:25;;;;;;;0.00;0.00;;;30.40;35.90;;;;;;5053819;28;20036;-75
2021/09/04 12:07:55;;;;;;;0.00;0.00;;;29.50;36.50;;;;;;5054209;28;20017;-74
2021/09/04 12:10:28;;;;;;;0.00;0.00;;;28.50;36.90;;;;;;5053925;28;20421;-75
2021/09/04 12:12:59;;;;;;;0.00;0.00;;;28.60;38.10;;;;;;5053809;28;20051;-75
2021/09/04 12:15:27;;;;;;;0.00;0.00;;;29.60;38.00;;;;;;5053792;28;20037;-75
2021/09/04 12:18:01;;;;;;;0.00;0.00;;;30.20;37.20;;;;;;5053897;28;20478;-75
2021/09/04 12:20:37;;;;;;;0.00;0.00;;;30.00;36.60;;;;;;5053761;28;20029;-75
2021/09/04 12:23:15;;;;;;;0.00;0.00;;;29.30;36.70;;;;;;5053761;28;20493;-74
2021/09/04 12:25:42;;;;;;;0.00;0.00;;;28.80;37.50;;;;;;5053747;28;20041;-75
2021/09/04 12:28:10;;;;;;;0.00;0.00;;;29.20;38.20;;;;;;5053364;28;20025;-75
2021/09/04 12:31:10;;;;;;;0.00;0.00;;;30.00;37.50;;;;;;5053689;28;20116;-75
2021/09/04 12:33:50;;;;;;;0.00;0.00;;;30.90;37.00;;;;;;5053734;28;20079;-75
2021/09/04 12:36:28;;;;;;;0.00;0.00;;;30.50;35.90;;;;;;5053549;28;20079;-74
2021/09/04 12:38:58;;;;;;;0.00;0.00;;;29.60;36.10;;;;;;5053617;28;20084;-75
2021/09/04 12:41:32;;;;;;;0.00;0.00;;;28.50;36.90;;;;;;5053529;28;20501;-74
2021/09/04 12:44:07;;;;;;;0.00;0.00;;;27.80;38.10;;;;;;5051212;28;20039;-75
2021/09/04 12:46:34;;;;;;;0.00;0.00;;;28.30;38.40;;;;;;5051122;28;20398;-76
2021/09/04 12:49:20;;;;;;;0.00;0.00;;;29.20;37.90;;;;;;5052369;28;20083;-74
2021/09/04 12:52:04;;;;;;;0.00;0.00;;;29.90;37.00;;;;;;5051583;28;20033;-74